Time;durP1;ratioP1;P1;durP2;ratioP2;P2;SDS_P1;SDS_P2;PMS_P1;PMS_P2;Temp;Humidity;BMP_temperature;BMP_pressure;BME280_temperature;BME280_humidity;BME280_pressure;Samples;Min_cycle;Max_cycle;Signal;HPM_P1;HPM_P2
2023/06/02 00:01:35;;;;;;;;;;;;;;;;;;5091740;27;19916;-64
2023/06/02 00:04:04;;;;;;;;;;;;;;;;;;5091038;28;20340;-65
2023/06/02 00:06:32;;;;;;;364.88;234.98;;;;;;;;;;5090552;28;20368;-65
2023/06/02 00:15:07;;;;;;;467.30;258.77;;;;;;;;;;5151453;27;20351;-63
2023/06/02 00:18:40;;;;;;;443.67;254.23;;;;;;;;;;5090511;28;20803;-63
2023/06/02 00:22:19;;;;;;;;;;;;;;;;;;5112131;27;19922;-62
2023/06/02 00:24:45;;;;;;;;;;;;;;;;;;5111366;28;20010;-64
2023/06/02 00:27:11;;;;;;;;;;;;;;;;;;5110424;28;19908;-63
2023/06/02 00:29:36;;;;;;;;;;;;;;;;;;5111700;28;19954;-63
2023/06/02 00:32:03;;;;;;;;;;;;;;;;;;5111255;28;20372;-63
2023/06/02 00:34:28;;;;;;;;;;;;;;;;;;5111551;28;20431;-63
2023/06/02 00:36:55;;;;;;;469.98;266.55;;;;;;;;;;5108504;28;20442;-63
2023/06/02 00:39:21;;;;;;;413.58;242.73;;;;;;;;;;5110828;28;20102;-64
2023/06/02 00:41:47;;;;;;;;;;;;;;;;;;5111345;28;20028;-63
2023/06/02 00:44:14;;;;;;;474.27;272.13;;;;;;;;;;5110646;28;20911;-64
2023/06/02 00:46:40;;;;;;;;;;;;;;;;;;5110892;28;20028;-63
2023/06/02 00:49:07;;;;;;;481.60;274.98;;;;;;;;;;5110586;28;20407;-63
2023/06/02 00:51:33;;;;;;;431.88;249.57;;;;;;;;;;5110884;28;20039;-63
2023/06/02 00:54:46;;;;;;;442.90;260.58;;;;;;;;;;5089807;27;20875;-63
2023/06/02 00:57:12;;;;;;;442.50;242.77;;;;;;;;;;5091236;28;20438;-63
2023/06/02 00:59:38;;;;;;;434.55;242.95;;;;;;;;;;5091111;28;20055;-63
2023/06/02 01:03:47;;;;;;;546.17;277.85;;;;;;;;;;5111910;27;20472;-62
2023/06/02 01:06:24;;;;;;;586.65;286.33;;;;;;;;;;5111463;28;20081;-65
2023/06/02 01:08:51;;;;;;;571.83;278.67;;;;;;;;;;5111226;28;20036;-65
2023/06/02 01:11:18;;;;;;;550.40;276.38;;;;;;;;;;5111424;28;20106;-65
2023/06/02 01:13:45;;;;;;;602.80;291.48;;;;;;;;;;5111130;28;20089;-65
2023/06/02 01:16:14;;;;;;;474.37;230.17;;;;;;;;;;5111410;28;20012;-62
2023/06/02 01:18:40;;;;;;;;;;;;;;;;;;5111425;28;20020;-63
2023/06/02 01:21:07;;;;;;;561.85;288.15;;;;;;;;;;5109527;28;20816;-63
2023/06/02 01:25:00;;;;;;;716.10;316.70;;;;;;;;;;5090718;27;20353;-63
2023/06/02 01:28:13;;;;;;;;;;;;;;;;;;5111751;27;20396;-64
2023/06/02 01:30:39;;;;;;;650.15;308.10;;;;;;;;;;5110537;28;20389;-64
2023/06/02 01:33:32;;;;;;;535.85;280.73;;;;;;;;;;5111304;28;20118;-62
2023/06/02 01:39:19;;;;;;;386.70;218.00;;;;;;;;;;5132828;27;20668;-63
2023/06/02 01:42:46;;;;;;;475.88;275.13;;;;;;;;;;5132045;27;20327;-65
2023/06/02 01:45:12;;;;;;;473.80;265.52;;;;;;;;;;5132039;28;20031;-62
2023/06/02 01:50:56;;;;;;;501.95;280.42;;;;;;;;;;5111192;27;20405;-63
2023/06/02 01:54:39;;;;;;;;;;;;;;;;;;5112380;27;20426;-63
2023/06/02 01:57:07;;;;;;;459.92;274.92;;;;;;;;;;5109993;28;20396;-63
2023/06/02 02:00:57;;;;;;;531.80;296.35;;;;;;;;;;5110801;27;20850;-65
2023/06/02 02:03:23;;;;;;;;;;;;;;;;;;5111453;28;20059;-65
2023/06/02 02:05:49;;;;;;;636.38;311.80;;;;;;;;;;5110125;28;20408;-64
2023/06/02 02:08:16;;;;;;;;;;;;;;;;;;5111592;28;20024;-63
2023/06/02 02:10:42;;;;;;;539.92;299.92;;;;;;;;;;5109518;28;20393;-63
2023/06/02 02:13:08;;;;;;;265.55;200.68;;;;;;;;;;5111685;28;20046;-63
2023/06/02 02:16:35;;;;;;;;;;;;;;;;;;5112068;27;20287;-65
2023/06/02 02:20:21;;;;;;;;;;;;;;;;;;5111799;27;19918;-65
2023/06/02 02:22:47;;;;;;;;;;;;;;;;;;5111801;28;20010;-65
2023/06/02 02:25:13;;;;;;;;;;;;;;;;;;5111260;28;19914;-65
2023/06/02 02:27:39;;;;;;;;;;;;;;;;;;5110403;28;19912;-65
2023/06/02 02:30:06;;;;;;;;;;;;;;;;;;5111646;28;19908;-65
2023/06/02 02:32:33;;;;;;;;;;;;;;;;;;5111203;28;19908;-62
2023/06/02 02:34:59;;;;;;;;;;;;;;;;;;5110183;28;19951;-65
2023/06/02 02:37:25;;;;;;;;;;;;;;;;;;5111485;28;19931;-65
2023/06/02 02:41:03;;;;;;;;;;;;;;;;;;5111990;27;19922;-63
2023/06/02 02:43:29;;;;;;;;;;;;;;;;;;5111795;28;19999;-64
2023/06/02 02:45:55;;;;;;;;;;;;;;;;;;5111338;28;19912;-63
2023/06/02 02:48:21;;;;;;;;;;;;;;;;;;5112267;28;20006;-63
2023/06/02 02:50:47;;;;;;;;;;;;;;;;;;5110724;28;20363;-63
2023/06/02 02:53:15;;;;;;;;;;;;;;;;;;5111124;28;20367;-64
2023/06/02 02:55:44;;;;;;;;;;;;;;;;;;5111496;28;19947;-63
2023/06/02 02:58:09;;;;;;;;;;;;;;;;;;5111460;28;19912;-64
2023/06/02 03:00:35;;;;;;;;;;;;;;;;;;5109717;28;19961;-63
2023/06/02 03:03:02;;;;;;;;;;;;;;;;;;5111382;28;19931;-63
2023/06/02 03:05:28;;;;;;;;;;;;;;;;;;5111369;28;19912;-63
2023/06/02 03:07:54;;;;;;;;;;;;;;;;;;5110979;28;19908;-63
2023/06/02 03:10:20;;;;;;;;;;;;;;;;;;5111575;28;20345;-65
2023/06/02 03:12:46;;;;;;;;;;;;;;;;;;5111232;28;19908;-63
2023/06/02 03:15:12;;;;;;;;;;;;;;;;;;5110875;28;19974;-63
2023/06/02 03:17:38;;;;;;;;;;;;;;;;;;5111062;28;19908;-63
2023/06/02 03:20:08;;;;;;;;;;;;;;;;;;5110968;28;19916;-63
2023/06/02 03:22:34;;;;;;;;;;;;;;;;;;5110614;28;19912;-63
2023/06/02 03:25:00;;;;;;;;;;;;;;;;;;5111187;28;19962;-63
2023/06/02 03:27:27;;;;;;;;;;;;;;;;;;5110486;28;19915;-64
2023/06/02 03:29:53;;;;;;;;;;;;;;;;;;5110882;28;20314;-64
2023/06/02 03:32:19;;;;;;;;;;;;;;;;;;5110803;28;19907;-64
2023/06/02 03:34:46;;;;;;;;;;;;;;;;;;5110392;28;20398;-64
2023/06/02 03:37:12;;;;;;;;;;;;;;;;;;5110754;28;19967;-64
2023/06/02 03:39:38;;;;;;;;;;;;;;;;;;5110348;28;19963;-65
2023/06/02 03:42:04;;;;;;;;;;;;;;;;;;5110323;28;20003;-65
2023/06/02 03:44:30;;;;;;;;;;;;;;;;;;5110611;28;19915;-64
2023/06/02 03:46:56;;;;;;;;;;;;;;;;;;5110727;28;19908;-64
2023/06/02 03:49:26;;;;;;;;;;;;;;;;;;5110046;28;19915;-64
2023/06/02 03:51:52;;;;;;;;;;;;;;;;;;5099784;28;19908;-64
2023/06/02 03:56:54;;;;;;;;;;;;;;;;;;5111522;27;19922;-64
2023/06/02 03:59:20;;;;;;;;;;;;;;;;;;5111727;28;19999;-63
2023/06/02 04:01:46;;;;;;;;;;;;;;;;;;5111651;28;20423;-63
2023/06/02 04:04:12;;;;;;;;;;;;;;;;;;5110031;28;19958;-63
2023/06/02 04:06:40;;;;;;;;;;;;;;;;;;5111603;28;19953;-63
2023/06/02 04:09:07;;;;;;;;;;;;;;;;;;5111550;28;19931;-63
2023/06/02 04:11:33;;;;;;;;;;;;;;;;;;5111228;28;19915;-63
2023/06/02 04:13:59;;;;;;;;;;;;;;;;;;5111474;28;20280;-63
2023/06/02 04:16:25;;;;;;;;;;;;;;;;;;5111316;28;19951;-63
2023/06/02 04:18:51;;;;;;;;;;;;;;;;;;5110964;28;20379;-63
2023/06/02 04:21:17;;;;;;;;;;;;;;;;;;5111346;28;19908;-63
2023/06/02 04:23:42;;;;;;;;;;;;;;;;;;5110916;28;19914;-63
2023/06/02 04:26:08;;;;;;;;;;;;;;;;;;5109886;28;19962;-63
2023/06/02 04:28:35;;;;;;;;;;;;;;;;;;5109898;28;19915;-63
2023/06/02 04:31:01;;;;;;;;;;;;;;;;;;5111197;28;19908;-63
2023/06/02 04:33:26;;;;;;;;;;;;;;;;;;5111706;28;20273;-63
2023/06/02 04:35:52;;;;;;;;;;;;;;;;;;5109724;28;20361;-64
2023/06/02 04:38:19;;;;;;;;;;;;;;;;;;5109308;28;20264;-64
2023/06/02 04:40:45;;;;;;;;;;;;;;;;;;5109696;28;19908;-64
2023/06/02 04:43:11;;;;;;;;;;;;;;;;;;5110969;28;19915;-64
2023/06/02 04:45:43;;;;;;;;;;;;;;;;;;5109209;28;19908;-63
2023/06/02 04:48:09;;;;;;;;;;;;;;;;;;5111483;28;20359;-64
2023/06/02 04:50:35;;;;;;;;;;;;;;;;;;5110829;28;19995;-63
2023/06/02 04:53:01;;;;;;;;;;;;;;;;;;5109134;28;19908;-64
2023/06/02 04:57:34;;;;;;;;;;;;;;;;;;5112250;27;19916;-63
2023/06/02 05:00:00;;;;;;;;;;;;;;;;;;5110133;28;20002;-63
2023/06/02 05:02:26;;;;;;;;;;;;;;;;;;5111707;28;19939;-64
2023/06/02 05:04:52;;;;;;;;;;;;;;;;;;5111639;28;19915;-64
2023/06/02 05:07:18;;;;;;;;;;;;;;;;;;5111231;28;20265;-63
2023/06/02 05:11:40;;;;;;;;;;;;;;;;;;5111906;27;19916;-63
2023/06/02 05:14:06;;;;;;;;;;;;;;;;;;5111549;28;20339;-63
2023/06/02 05:16:32;;;;;;;;;;;;;;;;;;5110441;28;19915;-64
2023/06/02 05:18:58;;;;;;;;;;;;;;;;;;5111775;28;19908;-64
2023/06/02 05:21:24;;;;;;;;;;;;;;;;;;5111478;28;20364;-63
2023/06/02 05:23:50;;;;;;;;;;;;;;;;;;5111638;28;19912;-63
2023/06/02 05:26:16;;;;;;;;;;;;;;;;;;5111524;28;19908;-64
2023/06/02 05:28:42;;;;;;;;;;;;;;;;;;5111067;28;19908;-64
2023/06/02 05:31:10;;;;;;;;;;;;;;;;;;5111509;28;19960;-64
2023/06/02 05:33:36;;;;;;;;;;;;;;;;;;5111413;28;19908;-64
2023/06/02 05:38:05;;;;;;;;;;;;;;;;;;5112059;27;19916;-64
2023/06/02 05:40:30;;;;;;;;;;;;;;;;;;5111785;28;19990;-64
2023/06/02 05:42:56;;;;;;;;;;;;;;;;;;5111302;28;19915;-64
2023/06/02 05:45:22;;;;;;;;;;;;;;;;;;5111754;28;19912;-64
2023/06/02 05:47:59;;;;;;;;;;;;;;;;;;5111837;27;19916;-64
2023/06/02 05:53:50;;;;;;;426.30;239.18;;;;;;;;;;5111322;27;20707;-65
2023/06/02 06:01:28;;;;;;;376.67;227.90;;;;;;;;;;5111630;27;20392;-64
2023/06/02 06:03:54;;;;;;;;;;;;;;;;;;5110045;28;20035;-64
2023/06/02 06:06:20;;;;;;;351.90;228.75;;;;;;;;;;5110341;28;20389;-64
2023/06/02 06:08:46;;;;;;;;;;;;;;;;;;5111616;28;20383;-64
2023/06/02 06:13:07;;;;;;;429.98;239.68;;;;;;;;;;5090276;27;20357;-64
2023/06/02 06:15:33;;;;;;;301.02;204.55;;;;;;;;;;5091114;28;20418;-64
2023/06/02 06:17:59;;;;;;;;;;;;;;;;;;5091048;28;20430;-64
2023/06/02 06:20:25;;;;;;;;;;;;;;;;;;5091377;28;19911;-63
2023/06/02 06:22:51;;;;;;;;;;;;;;;;;;5089989;28;19904;-63
2023/06/02 06:25:17;;;;;;;;;;;;;;;;;;5090865;28;19982;-63
2023/06/02 06:28:43;;;;;;;;;;;;;;;;;;5091908;28;19919;-64
2023/06/02 06:31:09;;;;;;;;;;;;;;;;;;5091357;28;19912;-64
2023/06/02 06:35:24;;;;;;;;;;;;;;;;;;5153138;27;19999;-65
2023/06/02 06:37:51;;;;;;;;;;;;;;;;;;5152664;27;20409;-65
2023/06/02 06:43:30;;;;;;;;;;;;;;;;;;5112367;27;19919;-64
2023/06/02 06:46:45;;;;;;;;;;;;;;;;;;5112251;27;19919;-65
2023/06/02 06:49:11;;;;;;;;;;;;;;;;;;5111799;28;20010;-65
2023/06/02 06:54:25;;;;;;;;;;;;;;;;;;5153567;27;19934;-65
2023/06/02 06:56:51;;;;;;;;;;;;;;;;;;5152970;27;19958;-65
2023/06/02 06:59:17;;;;;;;;;;;;;;;;;;5133935;27;20332;-65
2023/06/02 07:01:43;;;;;;;;;;;;;;;;;;5152926;27;20316;-63
2023/06/02 07:06:05;;;;;;;;;;;;;;;;;;5152639;27;19916;-65
2023/06/02 07:12:03;;;;;;;;;;;;;;;;;;5173869;27;20006;-65
2023/06/02 07:15:08;;;;;;;;;;;;;;;;;;5111891;27;19916;-63
2023/06/02 07:17:34;;;;;;;;;;;;;;;;;;5111774;28;20443;-65
2023/06/02 07:20:00;;;;;;;;;;;;;;;;;;5111346;28;19908;-63
2023/06/02 07:22:26;;;;;;;;;;;;;;;;;;5111684;28;20330;-63
2023/06/02 07:24:52;;;;;;;;;;;;;;;;;;5111658;28;20014;-65
2023/06/02 07:28:53;;;;;;;;;;;;;;;;;;5072136;27;20261;-65
2023/06/02 07:32:41;;;;;;;;;;;;;;;;;;5153107;27;20443;-63
2023/06/02 07:35:06;;;;;;;;;;;;;;;;;;5152571;27;20018;-64
2023/06/02 07:37:32;;;;;;;;;;;;;;;;;;5152890;27;19911;-64
2023/06/02 07:39:58;;;;;;;;;;;;;;;;;;5152833;27;19941;-64
2023/06/02 07:42:24;;;;;;;;;;;;;;;;;;5152392;27;19960;-64
2023/06/02 07:46:19;;;;;;;;;;;;;;;;;;5112476;27;19916;-65
2023/06/02 07:48:45;;;;;;;;;;;;;;;;;;5111456;28;20006;-65
2023/06/02 07:51:11;;;;;;;;;;;;;;;;;;5111686;28;20412;-65
2023/06/02 07:53:37;;;;;;;;;;;;;;;;;;5111590;28;20348;-63
2023/06/02 07:56:03;;;;;;;;;;;;;;;;;;5111113;28;19908;-64
2023/06/02 07:58:29;;;;;;;;;;;;;;;;;;5111551;28;20360;-64
2023/06/02 08:00:55;;;;;;;;;;;;;;;;;;5111551;28;20265;-64
2023/06/02 08:03:21;;;;;;;;;;;;;;;;;;5111051;28;19908;-64
2023/06/02 08:05:47;;;;;;;;;;;;;;;;;;5111404;28;19970;-64
2023/06/02 08:08:13;;;;;;;;;;;;;;;;;;5111467;28;19908;-64
2023/06/02 08:10:39;;;;;;;;;;;;;;;;;;5110968;28;19912;-64
2023/06/02 08:13:05;;;;;;;;;;;;;;;;;;5111300;28;19915;-64
2023/06/02 08:15:31;;;;;;;;;;;;;;;;;;5111233;28;19908;-64
2023/06/02 08:17:57;;;;;;;;;;;;;;;;;;5109535;28;19908;-64
2023/06/02 08:20:36;;;;;;;;;;;;;;;;;;5153197;27;20010;-64
2023/06/02 08:23:02;;;;;;;;;;;;;;;;;;5152485;27;19965;-63
2023/06/02 08:25:46;;;;;;;;;;;;;;;;;;5153408;27;20014;-65
2023/06/02 08:28:13;;;;;;;;;;;;;;;;;;5152964;27;19911;-63
2023/06/02 08:30:41;;;;;;;;;;;;;;;;;;5152525;27;19942;-65
2023/06/02 08:33:10;;;;;;;;;;;;;;;;;;5134451;27;19914;-66
2023/06/02 08:35:36;;;;;;;;;;;;;;;;;;5152750;27;19913;-66
2023/06/02 08:38:03;;;;;;;;;;;;;;;;;;5133847;27;19907;-66
2023/06/02 08:40:29;;;;;;;;;;;;;;;;;;5152668;27;19907;-64
2023/06/02 08:42:57;;;;;;;;;;;;;;;;;;5152672;27;19908;-63
2023/06/02 08:45:23;;;;;;;;;;;;;;;;;;5152115;27;19926;-63
2023/06/02 08:47:49;;;;;;;;;;;;;;;;;;5133956;27;19907;-65
2023/06/02 08:50:15;;;;;;;;;;;;;;;;;;5133979;27;20388;-65
2023/06/02 08:52:41;;;;;;;;;;;;;;;;;;5152124;27;19921;-65
2023/06/02 08:55:07;;;;;;;;;;;;;;;;;;5152434;27;20010;-65
2023/06/02 08:57:33;;;;;;;;;;;;;;;;;;5133759;27;19925;-65
2023/06/02 08:59:59;;;;;;;;;;;;;;;;;;5151902;27;20321;-65
2023/06/02 09:03:48;;;;;;;;;;;;;;;;;;5112579;27;19916;-65
2023/06/02 09:06:13;;;;;;;;;;;;;;;;;;5111333;28;19999;-63
2023/06/02 09:08:39;;;;;;;;;;;;;;;;;;5111707;28;20359;-64
2023/06/02 09:11:05;;;;;;;;;;;;;;;;;;5111659;28;20112;-64
2023/06/02 09:13:31;;;;;;;;;;;;;;;;;;5109921;28;19908;-64
2023/06/02 09:16:41;;;;;;;;;;;;;;;;;;5112447;27;19916;-63
2023/06/02 09:19:07;;;;;;;;;;;;;;;;;;5111366;28;20010;-63
2023/06/02 09:21:33;;;;;;;;;;;;;;;;;;5111685;28;19908;-63
2023/06/02 09:24:32;;;;;;;;;;;;;;;;;;5111797;27;19922;-63
2023/06/02 09:29:19;;;;;;;;;;;;;;;;;;5112243;27;20309;-64
2023/06/02 09:31:45;;;;;;;;;;;;;;;;;;5111712;28;19916;-64
2023/06/02 09:35:30;;;;;;;;;;;;;;;;;;5112237;27;20288;-64
2023/06/02 09:37:57;;;;;;;;;;;;;;;;;;5111772;28;20011;-64
2023/06/02 09:40:23;;;;;;;;;;;;;;;;;;5111274;28;19911;-64
2023/06/02 09:42:48;;;;;;;;;;;;;;;;;;5111721;28;19908;-63
2023/06/02 09:45:14;;;;;;;;;;;;;;;;;;5111690;28;19912;-63
2023/06/02 09:47:43;;;;;;;;;;;;;;;;;;5111281;28;19952;-65
2023/06/02 09:50:09;;;;;;;;;;;;;;;;;;5110189;28;19908;-63
2023/06/02 09:52:35;;;;;;;;;;;;;;;;;;5110178;28;20355;-63
2023/06/02 09:55:01;;;;;;;;;;;;;;;;;;5111037;28;19957;-64
2023/06/02 09:57:27;;;;;;;;;;;;;;;;;;5110127;28;19996;-64
2023/06/02 09:59:53;;;;;;;;;;;;;;;;;;5109964;28;19908;-64
2023/06/02 10:02:19;;;;;;;;;;;;;;;;;;5109603;28;19916;-64
2023/06/02 10:04:45;;;;;;;;;;;;;;;;;;5111214;28;19914;-63
2023/06/02 10:07:13;;;;;;;;;;;;;;;;;;5109907;28;19908;-64
2023/06/02 10:09:39;;;;;;;;;;;;;;;;;;5109417;28;20341;-63
2023/06/02 10:12:05;;;;;;;;;;;;;;;;;;5111108;28;20368;-64
2023/06/02 10:14:31;;;;;;;;;;;;;;;;;;5109743;28;20018;-64
2023/06/02 10:16:57;;;;;;;;;;;;;;;;;;5110729;28;19908;-64
2023/06/02 10:19:23;;;;;;;;;;;;;;;;;;5109751;28;19934;-64
2023/06/02 10:21:49;;;;;;;;;;;;;;;;;;5109671;28;19915;-64
2023/06/02 10:24:15;;;;;;;;;;;;;;;;;;5110404;28;19931;-64
2023/06/02 10:26:41;;;;;;;;;;;;;;;;;;5110887;28;19962;-64
2023/06/02 10:29:08;;;;;;;;;;;;;;;;;;5111243;28;19908;-64
2023/06/02 10:31:34;;;;;;;;;;;;;;;;;;5110443;28;19908;-64
2023/06/02 10:34:00;;;;;;;;;;;;;;;;;;5109203;28;19920;-64
2023/06/02 10:36:26;;;;;;;;;;;;;;;;;;5110327;28;19914;-64
2023/06/02 10:38:52;;;;;;;;;;;;;;;;;;5109387;28;20291;-64
2023/06/02 10:41:24;;;;;;;;;;;;;;;;;;5110522;28;19965;-64
2023/06/02 10:43:50;;;;;;;;;;;;;;;;;;5110517;28;19994;-64
2023/06/02 10:46:17;;;;;;;;;;;;;;;;;;5100158;28;20007;-64
2023/06/02 10:48:43;;;;;;;;;;;;;;;;;;5096855;28;19908;-64
2023/06/02 10:51:09;;;;;;;;;;;;;;;;;;5096675;28;19915;-64
2023/06/02 10:53:35;;;;;;;;;;;;;;;;;;5096798;28;19912;-64
2023/06/02 10:56:01;;;;;;;;;;;;;;;;;;5096700;28;20356;-64
2023/06/02 10:58:27;;;;;;;;;;;;;;;;;;5096316;28;20236;-64
2023/06/02 11:00:53;;;;;;;;;;;;;;;;;;5096548;28;20322;-64
2023/06/02 11:03:22;;;;;;;;;;;;;;;;;;5095308;28;19915;-64
2023/06/02 11:05:49;;;;;;;;;;;;;;;;;;5096365;28;19908;-64
2023/06/02 11:08:17;;;;;;;;;;;;;;;;;;5096490;28;19908;-64
2023/06/02 11:10:43;;;;;;;;;;;;;;;;;;5096722;28;19931;-64
2023/06/02 11:13:09;;;;;;;;;;;;;;;;;;5095937;28;20359;-64
2023/06/02 11:15:35;;;;;;;;;;;;;;;;;;5095100;28;20285;-63
2023/06/02 11:18:03;;;;;;;;;;;;;;;;;;5096328;28;19909;-63
2023/06/02 11:20:29;;;;;;;;;;;;;;;;;;5095812;28;19995;-63
2023/06/02 11:22:55;;;;;;;;;;;;;;;;;;5096537;28;20437;-63
2023/06/02 11:25:21;;;;;;;;;;;;;;;;;;5096161;28;20387;-63
2023/06/02 11:27:47;;;;;;;;;;;;;;;;;;5095710;28;20253;-64
2023/06/02 11:30:14;;;;;;;;;;;;;;;;;;5095978;28;19935;-63
2023/06/02 11:32:40;;;;;;;;;;;;;;;;;;5094236;28;20311;-64
2023/06/02 11:35:07;;;;;;;;;;;;;;;;;;5094226;28;19924;-64
2023/06/02 11:37:33;;;;;;;;;;;;;;;;;;5095843;28;20279;-64
2023/06/02 11:39:59;;;;;;;;;;;;;;;;;;5094130;28;19954;-64
2023/06/02 11:42:25;;;;;;;;;;;;;;;;;;5095846;28;19908;-64
2023/06/02 11:44:51;;;;;;;;;;;;;;;;;;5095773;28;19912;-64
2023/06/02 11:47:17;;;;;;;;;;;;;;;;;;5095291;28;20012;-64
2023/06/02 11:49:43;;;;;;;;;;;;;;;;;;5095713;28;20348;-63
2023/06/02 11:52:09;;;;;;;;;;;;;;;;;;5095625;28;19915;-64
2023/06/02 11:54:35;;;;;;;;;;;;;;;;;;5095013;28;19916;-64
2023/06/02 11:57:01;;;;;;;;;;;;;;;;;;5093241;28;19999;-64
2023/06/02 11:59:27;;;;;;;;;;;;;;;;;;5095477;28;19915;-64
2023/06/02 12:01:53;;;;;;;;;;;;;;;;;;5095063;28;19916;-64
2023/06/02 12:04:19;;;;;;;;;;;;;;;;;;5095381;28;19912;-64
2023/06/02 12:06:48;;;;;;;;;;;;;;;;;;5095327;28;19909;-64
2023/06/02 12:09:13;;;;;;;;;;;;;;;;;;5093595;28;19915;-64
2023/06/02 12:11:39;;;;;;;;;;;;;;;;;;5093869;28;19908;-64
2023/06/02 12:14:06;;;;;;;;;;;;;;;;;;5095052;28;20309;-65
2023/06/02 12:16:34;;;;;;;;;;;;;;;;;;5094719;28;19919;-64
2023/06/02 12:18:59;;;;;;;;;;;;;;;;;;5093631;28;19909;-64
2023/06/02 12:21:26;;;;;;;;;;;;;;;;;;5094967;28;20386;-64
2023/06/02 12:23:52;;;;;;;;;;;;;;;;;;5094602;28;19955;-64
2023/06/02 12:26:18;;;;;;;;;;;;;;;;;;5093635;28;19916;-64
2023/06/02 12:28:44;;;;;;;;;;;;;;;;;;5093662;28;19909;-64
2023/06/02 12:31:10;;;;;;;;;;;;;;;;;;5094497;28;20272;-64
2023/06/02 12:33:36;;;;;;;;;;;;;;;;;;5094679;28;19920;-65
2023/06/02 12:36:02;;;;;;;;;;;;;;;;;;5094352;28;19909;-65
2023/06/02 12:38:28;;;;;;;;;;;;;;;;;;5093452;28;20041;-65
2023/06/02 12:40:54;;;;;;;;;;;;;;;;;;5094684;28;20283;-65
2023/06/02 12:43:20;;;;;;;;;;;;;;;;;;5094283;28;19961;-65
2023/06/02 12:45:46;;;;;;;;;;;;;;;;;;5094597;28;19914;-64
2023/06/02 12:48:12;;;;;;;;;;;;;;;;;;5094560;28;19919;-65
2023/06/02 12:50:38;;;;;;;;;;;;;;;;;;5094249;28;19912;-65
2023/06/02 12:53:04;;;;;;;;;;;;;;;;;;5093188;28;19908;-65
2023/06/02 12:55:30;;;;;;;;;;;;;;;;;;5094356;28;19916;-65
2023/06/02 12:57:56;;;;;;;;;;;;;;;;;;5094133;28;20367;-65
2023/06/02 13:00:22;;;;;;;;;;;;;;;;;;5094590;28;20422;-65
2023/06/02 13:02:48;;;;;;;;;;;;;;;;;;5094520;28;20345;-65
2023/06/02 13:05:14;;;;;;;;;;;;;;;;;;5094146;28;20283;-65
2023/06/02 13:07:40;;;;;;;;;;;;;;;;;;5094586;28;19914;-65
2023/06/02 13:10:07;;;;;;;;;;;;;;;;;;5093969;28;19930;-63
2023/06/02 13:12:33;;;;;;;;;;;;;;;;;;5092879;28;20271;-64
2023/06/02 13:15:00;;;;;;;;;;;;;;;;;;5094076;28;19923;-63
2023/06/02 13:17:27;;;;;;;;;;;;;;;;;;5094612;28;19908;-64
2023/06/02 13:19:53;;;;;;;;;;;;;;;;;;5093756;28;19914;-64
2023/06/02 13:22:19;;;;;;;;;;;;;;;;;;5094072;28;20002;-64
2023/06/02 13:24:45;;;;;;;;;;;;;;;;;;5094079;28;19916;-64
2023/06/02 13:27:11;;;;;;;;;;;;;;;;;;5093671;28;19912;-64
2023/06/02 13:29:37;;;;;;;;;;;;;;;;;;5092725;28;19915;-64
2023/06/02 13:32:03;;;;;;;;;;;;;;;;;;5093967;28;19908;-64
2023/06/02 13:34:29;;;;;;;;;;;;;;;;;;5091985;28;19941;-64
2023/06/02 13:36:55;;;;;;;;;;;;;;;;;;5093920;28;19985;-64
2023/06/02 13:39:21;;;;;;;;;;;;;;;;;;5092131;28;19950;-64
2023/06/02 13:41:47;;;;;;;;;;;;;;;;;;5093877;28;19909;-64
2023/06/02 13:44:13;;;;;;;;;;;;;;;;;;5093892;28;20356;-64
2023/06/02 13:46:39;;;;;;;;;;;;;;;;;;5094004;28;20259;-65
2023/06/02 13:49:05;;;;;;;;;;;;;;;;;;5093791;28;19909;-65
2023/06/02 13:51:31;;;;;;;;;;;;;;;;;;5093730;28;19912;-65
2023/06/02 13:53:57;;;;;;;;;;;;;;;;;;5093308;28;19938;-65
2023/06/02 13:56:23;;;;;;;;;;;;;;;;;;5093797;28;19909;-65
2023/06/02 13:58:49;;;;;;;;;;;;;;;;;;5092311;28;19912;-65
2023/06/02 14:01:15;;;;;;;;;;;;;;;;;;5093357;28;19948;-65
2023/06/02 14:03:41;;;;;;;;;;;;;;;;;;5093652;28;19912;-65
2023/06/02 14:06:07;;;;;;;;;;;;;;;;;;5093868;28;19947;-65
2023/06/02 14:08:33;;;;;;;;;;;;;;;;;;5093290;28;20363;-65
2023/06/02 14:10:59;;;;;;;;;;;;;;;;;;5093991;28;19915;-65
2023/06/02 14:13:25;;;;;;;;;;;;;;;;;;5093520;28;20399;-65
2023/06/02 14:15:52;;;;;;;;;;;;;;;;;;5093274;28;20284;-65
2023/06/02 14:18:18;;;;;;;;;;;;;;;;;;5093531;28;20352;-65
2023/06/02 14:20:43;;;;;;;;;;;;;;;;;;5094931;28;19914;-65
2023/06/02 14:23:09;;;;;;;;;;;;;;;;;;5097027;28;19943;-65
2023/06/02 14:25:35;;;;;;;;;;;;;;;;;;5097282;28;19908;-62
2023/06/02 14:28:01;;;;;;;;;;;;;;;;;;5095921;28;19912;-63
2023/06/02 14:30:27;;;;;;;;;;;;;;;;;;5096907;28;19908;-63
2023/06/02 14:32:53;;;;;;;;;;;;;;;;;;5097204;28;19915;-63
2023/06/02 14:35:19;;;;;;;;;;;;;;;;;;5096903;28;19920;-63
2023/06/02 14:37:45;;;;;;;;;;;;;;;;;;5096654;28;19990;-64
2023/06/02 14:40:11;;;;;;;;;;;;;;;;;;5096995;28;19970;-64
2023/06/02 14:42:37;;;;;;;;;;;;;;;;;;5097094;28;19909;-64
2023/06/02 14:45:03;;;;;;;;;;;;;;;;;;5095254;28;19921;-64
2023/06/02 14:47:33;;;;;;;;;;;;;;;;;;5095582;28;19951;-64
2023/06/02 14:49:59;;;;;;;;;;;;;;;;;;5096511;28;19915;-63
2023/06/02 14:52:25;;;;;;;;;;;;;;;;;;5096842;28;19908;-64
2023/06/02 14:54:51;;;;;;;;;;;;;;;;;;5096682;28;19924;-64
2023/06/02 14:57:17;;;;;;;;;;;;;;;;;;5096402;28;20287;-64
2023/06/02 14:59:43;;;;;;;;;;;;;;;;;;5096734;28;20252;-64
2023/06/02 15:02:09;;;;;;;;;;;;;;;;;;5096623;28;19911;-64
2023/06/02 15:04:35;;;;;;;;;;;;;;;;;;5094875;28;19914;-64
2023/06/02 15:07:01;;;;;;;;;;;;;;;;;;5096484;28;19951;-64
2023/06/02 15:09:27;;;;;;;;;;;;;;;;;;5095137;28;19961;-64
2023/06/02 15:11:52;;;;;;;;;;;;;;;;;;5096167;28;19912;-64
2023/06/02 15:14:18;;;;;;;;;;;;;;;;;;5095050;28;20433;-65
2023/06/02 15:16:45;;;;;;;;;;;;;;;;;;5096371;28;20360;-64
2023/06/02 15:19:11;;;;;;;;;;;;;;;;;;5095938;28;19961;-64
2023/06/02 15:21:37;;;;;;;;;;;;;;;;;;5095035;28;19908;-65
2023/06/02 15:24:03;;;;;;;;;;;;;;;;;;5096182;28;19909;-65
2023/06/02 15:26:29;;;;;;;;;;;;;;;;;;5095892;28;19995;-65
2023/06/02 15:28:55;;;;;;;;;;;;;;;;;;5096087;28;19915;-64
2023/06/02 15:31:21;;;;;;;;;;;;;;;;;;5095873;28;19908;-64
2023/06/02 15:33:47;;;;;;;;;;;;;;;;;;5095372;28;19928;-64
2023/06/02 15:36:13;;;;;;;;;;;;;;;;;;5095929;28;20292;-65
2023/06/02 15:38:39;;;;;;;;;;;;;;;;;;5095872;28;19908;-64
2023/06/02 15:41:05;;;;;;;;;;;;;;;;;;5095446;28;19915;-64
2023/06/02 15:43:31;;;;;;;;;;;;;;;;;;5095862;28;19916;-65
2023/06/02 15:45:57;;;;;;;;;;;;;;;;;;5094527;28;19915;-65
2023/06/02 15:48:23;;;;;;;;;;;;;;;;;;5095406;28;19908;-65
2023/06/02 15:50:49;;;;;;;;;;;;;;;;;;5095715;28;19912;-65
2023/06/02 15:53:15;;;;;;;;;;;;;;;;;;5095310;28;19915;-65
2023/06/02 15:55:41;;;;;;;;;;;;;;;;;;5095627;28;19919;-65
2023/06/02 15:58:07;;;;;;;;;;;;;;;;;;5095539;28;20253;-65
2023/06/02 16:00:33;;;;;;;;;;;;;;;;;;5095060;28;19915;-65
2023/06/02 16:02:59;;;;;;;;;;;;;;;;;;5095344;28;19912;-65
2023/06/02 16:05:25;;;;;;;;;;;;;;;;;;5094127;28;19915;-65
2023/06/02 16:07:51;;;;;;;;;;;;;;;;;;5093957;28;19908;-64
2023/06/02 16:10:17;;;;;;;;;;;;;;;;;;5095260;28;19931;-65
2023/06/02 16:12:43;;;;;;;;;;;;;;;;;;5093979;28;19914;-65
2023/06/02 16:15:09;;;;;;;;;;;;;;;;;;5093505;28;19916;-65
2023/06/02 16:17:35;;;;;;;;;;;;;;;;;;5095172;28;19909;-64
2023/06/02 16:20:01;;;;;;;;;;;;;;;;;;5095360;28;19908;-64
2023/06/02 16:22:27;;;;;;;;;;;;;;;;;;5094633;28;19915;-65
2023/06/02 16:24:53;;;;;;;;;;;;;;;;;;5095028;28;19908;-64
2023/06/02 16:27:19;;;;;;;;;;;;;;;;;;5094891;28;19955;-64
2023/06/02 16:30:22;;;;;;;;;;;;;;;;;;5111310;27;19916;-63
2023/06/02 16:32:49;;;;;;;;;;;;;;;;;;5111690;28;19965;-64
2023/06/02 16:35:15;;;;;;;;;;;;;;;;;;5111213;28;20021;-65
2023/06/02 16:37:41;;;;;;;;;;;;;;;;;;5111616;28;19992;-64
2023/06/02 16:40:07;;;;;;;;;;;;;;;;;;5111489;28;19919;-64
2023/06/02 16:42:33;;;;;;;;;;;;;;;;;;5111119;28;19912;-65
2023/06/02 16:44:59;;;;;;;;;;;;;;;;;;5111827;28;19951;-65
2023/06/02 16:47:25;;;;;;;;;;;;;;;;;;5112051;28;20359;-64
2023/06/02 16:49:51;;;;;;;;;;;;;;;;;;5110890;28;20372;-64
2023/06/02 16:52:17;;;;;;;;;;;;;;;;;;5111380;28;19908;-65
2023/06/02 16:54:43;;;;;;;;;;;;;;;;;;5111354;28;19997;-65
2023/06/02 16:57:09;;;;;;;;;;;;;;;;;;5110850;28;19915;-65
2023/06/02 16:59:35;;;;;;;;;;;;;;;;;;5111675;28;20295;-65
2023/06/02 17:02:01;;;;;;;;;;;;;;;;;;5111137;28;19908;-65
2023/06/02 17:04:27;;;;;;;;;;;;;;;;;;5109442;28;19915;-65
2023/06/02 17:06:53;;;;;;;;;;;;;;;;;;5111139;28;20010;-65
2023/06/02 17:09:20;;;;;;;;;;;;;;;;;;5111217;28;19931;-65
2023/06/02 17:11:46;;;;;;;;;;;;;;;;;;5110498;28;20368;-65
2023/06/02 17:14:12;;;;;;;;;;;;;;;;;;5110949;28;19955;-65
2023/06/02 17:16:38;;;;;;;;;;;;;;;;;;5109547;28;19936;-65
2023/06/02 17:19:04;;;;;;;;;;;;;;;;;;5110339;28;20316;-65
2023/06/02 17:21:30;;;;;;;;;;;;;;;;;;5109526;28;20283;-65
2023/06/02 17:23:56;;;;;;;;;;;;;;;;;;5110828;28;20318;-65
2023/06/02 17:26:22;;;;;;;;;;;;;;;;;;5110329;28;20027;-65
2023/06/02 17:28:48;;;;;;;;;;;;;;;;;;5110307;28;19943;-65
2023/06/02 17:31:15;;;;;;;;;;;;;;;;;;5110547;28;19912;-64
2023/06/02 17:33:42;;;;;;;;;;;;;;;;;;5108894;28;19908;-64